sensor_id;sensor_type;location;lat;lon;timestamp;temperature;humidity
23100;DHT22;53791;50.696;4.396;2023-03-23T00:01:20;13.00;99.90
23100;DHT22;53791;50.696;4.396;2023-03-23T00:03:50;13.00;99.90
23100;DHT22;53791;50.696;4.396;2023-03-23T00:06:19;13.00;99.90
23100;DHT22;53791;50.696;4.396;2023-03-23T00:08:51;13.00;99.90
23100;DHT22;53791;50.696;4.396;2023-03-23T00:11:22;12.90;99.90
23100;DHT22;53791;50.696;4.396;2023-03-23T00:13:52;12.90;99.90
23100;DHT22;53791;50.696;4.396;2023-03-23T00:16:22;12.80;99.90
23100;DHT22;53791;50.696;4.396;2023-03-23T00:18:51;12.80;99.90
23100;DHT22;53791;50.696;4.396;2023-03-23T00:21:23;12.90;99.90
23100;DHT22;53791;50.696;4.396;2023-03-23T00:23:52;12.90;99.90
23100;DHT22;53791;50.696;4.396;2023-03-23T00:26:20;12.90;99.90
23100;DHT22;53791;50.696;4.396;2023-03-23T00:28:48;12.90;99.90
23100;DHT22;53791;50.696;4.396;2023-03-23T00:31:17;12.90;99.90
23100;DHT22;53791;50.696;4.396;2023-03-23T00:33:45;12.90;99.90
23100;DHT22;53791;50.696;4.396;2023-03-23T00:36:14;12.80;99.90
23100;DHT22;53791;50.696;4.396;2023-03-23T00:38:41;12.80;99.90
23100;DHT22;53791;50.696;4.396;2023-03-23T00:41:10;12.70;99.90
23100;DHT22;53791;50.696;4.396;2023-03-23T00:43:38;12.80;99.90
23100;DHT22;53791;50.696;4.396;2023-03-23T00:46:06;12.80;99.90
23100;DHT22;53791;50.696;4.396;2023-03-23T00:48:37;12.70;99.90
23100;DHT22;53791;50.696;4.396;2023-03-23T00:51:09;12.80;99.90
23100;DHT22;53791;50.696;4.396;2023-03-23T00:53:43;12.80;99.90
23100;DHT22;53791;50.696;4.396;2023-03-23T00:56:08;12.80;99.90
23100;DHT22;53791;50.696;4.396;2023-03-23T00:58:36;12.70;99.90
23100;DHT22;53791;50.696;4.396;2023-03-23T01:01:04;12.80;99.90
23100;DHT22;53791;50.696;4.396;2023-03-23T01:03:31;12.80;99.90
23100;DHT22;53791;50.696;4.396;2023-03-23T01:06:08;12.80;99.90
23100;DHT22;53791;50.696;4.396;2023-03-23T01:08:39;12.70;99.90
23100;DHT22;53791;50.696;4.396;2023-03-23T01:11:08;12.70;99.90
23100;DHT22;53791;50.696;4.396;2023-03-23T01:13:36;12.80;99.90
23100;DHT22;53791;50.696;4.396;2023-03-23T01:16:03;12.70;99.90
23100;DHT22;53791;50.696;4.396;2023-03-23T01:18:31;12.70;99.90
23100;DHT22;53791;50.696;4.396;2023-03-23T01:21:06;12.80;99.90
23100;DHT22;53791;50.696;4.396;2023-03-23T01:23:34;12.70;99.90
23100;DHT22;53791;50.696;4.396;2023-03-23T01:26:10;12.70;99.90
23100;DHT22;53791;50.696;4.396;2023-03-23T01:28:38;12.70;99.90
23100;DHT22;53791;50.696;4.396;2023-03-23T01:31:08;12.80;99.90
23100;DHT22;53791;50.696;4.396;2023-03-23T01:33:39;12.70;99.90
23100;DHT22;53791;50.696;4.396;2023-03-23T01:36:12;12.70;99.90
23100;DHT22;53791;50.696;4.396;2023-03-23T01:38:42;12.70;99.90
23100;DHT22;53791;50.696;4.396;2023-03-23T01:41:11;12.70;99.90
23100;DHT22;53791;50.696;4.396;2023-03-23T01:43:59;12.70;99.90
23100;DHT22;53791;50.696;4.396;2023-03-23T01:46:32;12.80;99.90
23100;DHT22;53791;50.696;4.396;2023-03-23T01:49:03;12.70;99.90
23100;DHT22;53791;50.696;4.396;2023-03-23T01:51:35;12.60;99.90
23100;DHT22;53791;50.696;4.396;2023-03-23T01:54:05;12.70;99.90
23100;DHT22;53791;50.696;4.396;2023-03-23T01:56:39;12.70;99.90
23100;DHT22;53791;50.696;4.396;2023-03-23T01:59:08;12.70;99.90
23100;DHT22;53791;50.696;4.396;2023-03-23T02:01:37;12.60;99.90
23100;DHT22;53791;50.696;4.396;2023-03-23T02:04:06;12.60;99.90
23100;DHT22;53791;50.696;4.396;2023-03-23T02:06:34;12.60;99.90
23100;DHT22;53791;50.696;4.396;2023-03-23T02:09:02;12.60;99.90
23100;DHT22;53791;50.696;4.396;2023-03-23T02:11:31;12.60;99.90
23100;DHT22;53791;50.696;4.396;2023-03-23T02:13:59;12.60;99.90
23100;DHT22;53791;50.696;4.396;2023-03-23T02:19:46;12.60;99.90
23100;DHT22;53791;50.696;4.396;2023-03-23T02:22:48;12.50;99.90
23100;DHT22;53791;50.696;4.396;2023-03-23T02:25:40;12.50;99.90
23100;DHT22;53791;50.696;4.396;2023-03-23T02:28:28;12.50;99.90
23100;DHT22;53791;50.696;4.396;2023-03-23T02:33:41;12.50;99.90
23100;DHT22;53791;50.696;4.396;2023-03-23T02:36:23;12.50;99.90
23100;DHT22;53791;50.696;4.396;2023-03-23T02:39:02;12.50;99.90
23100;DHT22;53791;50.696;4.396;2023-03-23T02:41:24;12.50;99.90
23100;DHT22;53791;50.696;4.396;2023-03-23T02:43:52;12.60;99.90
23100;DHT22;53791;50.696;4.396;2023-03-23T02:46:21;12.50;99.90
23100;DHT22;53791;50.696;4.396;2023-03-23T02:48:50;12.50;99.90
23100;DHT22;53791;50.696;4.396;2023-03-23T02:51:21;12.50;99.90
23100;DHT22;53791;50.696;4.396;2023-03-23T02:53:51;12.50;99.90
23100;DHT22;53791;50.696;4.396;2023-03-23T02:56:22;12.50;99.90
23100;DHT22;53791;50.696;4.396;2023-03-23T02:58:50;12.50;99.90
23100;DHT22;53791;50.696;4.396;2023-03-23T03:04:00;12.40;99.90
23100;DHT22;53791;50.696;4.396;2023-03-23T03:06:36;12.50;99.90
23100;DHT22;53791;50.696;4.396;2023-03-23T03:09:26;12.40;99.90
23100;DHT22;53791;50.696;4.396;2023-03-23T03:11:50;12.40;99.90
23100;DHT22;53791;50.696;4.396;2023-03-23T03:14:30;12.40;99.90
23100;DHT22;53791;50.696;4.396;2023-03-23T03:17:14;12.40;99.90
23100;DHT22;53791;50.696;4.396;2023-03-23T03:19:40;12.40;99.90
23100;DHT22;53791;50.696;4.396;2023-03-23T03:22:08;12.40;99.90
23100;DHT22;53791;50.696;4.396;2023-03-23T03:24:37;12.40;99.90
23100;DHT22;53791;50.696;4.396;2023-03-23T03:27:09;12.30;99.90
23100;DHT22;53791;50.696;4.396;2023-03-23T03:29:38;12.30;99.90
23100;DHT22;53791;50.696;4.396;2023-03-23T03:32:11;12.30;99.90
23100;DHT22;53791;50.696;4.396;2023-03-23T03:34:39;12.30;99.90
23100;DHT22;53791;50.696;4.396;2023-03-23T03:37:08;12.30;99.90
23100;DHT22;53791;50.696;4.396;2023-03-23T03:39:37;12.30;99.90
23100;DHT22;53791;50.696;4.396;2023-03-23T03:42:06;12.30;99.90
23100;DHT22;53791;50.696;4.396;2023-03-23T03:44:34;12.30;99.90
23100;DHT22;53791;50.696;4.396;2023-03-23T03:47:01;12.30;99.90
23100;DHT22;53791;50.696;4.396;2023-03-23T03:49:29;12.30;99.90
23100;DHT22;53791;50.696;4.396;2023-03-23T03:51:57;12.30;99.90
23100;DHT22;53791;50.696;4.396;2023-03-23T03:54:24;12.30;99.90
23100;DHT22;53791;50.696;4.396;2023-03-23T03:56:52;12.30;99.90
23100;DHT22;53791;50.696;4.396;2023-03-23T03:59:22;12.30;99.90
23100;DHT22;53791;50.696;4.396;2023-03-23T04:01:50;12.30;99.90
23100;DHT22;53791;50.696;4.396;2023-03-23T04:04:19;12.30;99.90
23100;DHT22;53791;50.696;4.396;2023-03-23T04:06:48;12.30;99.90
23100;DHT22;53791;50.696;4.396;2023-03-23T04:09:16;12.20;99.90
23100;DHT22;53791;50.696;4.396;2023-03-23T04:11:43;12.20;99.90
23100;DHT22;53791;50.696;4.396;2023-03-23T04:14:11;12.20;99.90
23100;DHT22;53791;50.696;4.396;2023-03-23T04:16:39;12.30;99.90
23100;DHT22;53791;50.696;4.396;2023-03-23T04:19:07;12.20;99.90
23100;DHT22;53791;50.696;4.396;2023-03-23T04:21:35;12.20;99.90
23100;DHT22;53791;50.696;4.396;2023-03-23T04:24:03;12.20;99.90
23100;DHT22;53791;50.696;4.396;2023-03-23T04:26:31;12.30;99.90
23100;DHT22;53791;50.696;4.396;2023-03-23T04:28:58;12.30;99.90
23100;DHT22;53791;50.696;4.396;2023-03-23T04:31:26;12.20;99.90
23100;DHT22;53791;50.696;4.396;2023-03-23T04:33:54;12.20;99.90
23100;DHT22;53791;50.696;4.396;2023-03-23T04:36:21;12.20;99.90
23100;DHT22;53791;50.696;4.396;2023-03-23T04:38:49;12.20;99.90
23100;DHT22;53791;50.696;4.396;2023-03-23T04:41:17;12.20;99.90
23100;DHT22;53791;50.696;4.396;2023-03-23T04:43:44;12.20;99.90
23100;DHT22;53791;50.696;4.396;2023-03-23T04:46:12;12.20;99.90
23100;DHT22;53791;50.696;4.396;2023-03-23T04:48:41;12.10;99.90
23100;DHT22;53791;50.696;4.396;2023-03-23T04:51:09;12.10;99.90
23100;DHT22;53791;50.696;4.396;2023-03-23T04:53:38;12.10;99.90
23100;DHT22;53791;50.696;4.396;2023-03-23T04:56:07;12.00;99.90
23100;DHT22;53791;50.696;4.396;2023-03-23T04:58:35;12.10;99.90
23100;DHT22;53791;50.696;4.396;2023-03-23T05:01:03;12.10;99.90
23100;DHT22;53791;50.696;4.396;2023-03-23T05:03:31;12.10;99.90
23100;DHT22;53791;50.696;4.396;2023-03-23T05:06:05;12.00;99.90
23100;DHT22;53791;50.696;4.396;2023-03-23T05:08:29;11.90;99.90
23100;DHT22;53791;50.696;4.396;2023-03-23T05:10:59;11.90;99.90
23100;DHT22;53791;50.696;4.396;2023-03-23T05:13:30;11.90;99.90
23100;DHT22;53791;50.696;4.396;2023-03-23T05:15:57;11.80;99.90
23100;DHT22;53791;50.696;4.396;2023-03-23T05:18:25;11.80;99.90
23100;DHT22;53791;50.696;4.396;2023-03-23T05:20:52;11.80;99.90
23100;DHT22;53791;50.696;4.396;2023-03-23T05:23:20;11.80;99.90
23100;DHT22;53791;50.696;4.396;2023-03-23T05:25:56;11.80;99.90
23100;DHT22;53791;50.696;4.396;2023-03-23T05:28:27;11.80;99.90
23100;DHT22;53791;50.696;4.396;2023-03-23T05:30:55;11.80;99.90
23100;DHT22;53791;50.696;4.396;2023-03-23T05:33:23;11.90;99.90
23100;DHT22;53791;50.696;4.396;2023-03-23T05:35:52;11.90;99.90
23100;DHT22;53791;50.696;4.396;2023-03-23T05:38:19;11.80;99.90
23100;DHT22;53791;50.696;4.396;2023-03-23T05:40:48;11.90;99.90
23100;DHT22;53791;50.696;4.396;2023-03-23T05:43:16;11.80;99.90
23100;DHT22;53791;50.696;4.396;2023-03-23T05:45:44;11.90;99.90
23100;DHT22;53791;50.696;4.396;2023-03-23T05:48:12;11.80;99.90
23100;DHT22;53791;50.696;4.396;2023-03-23T05:50:39;11.80;99.90
23100;DHT22;53791;50.696;4.396;2023-03-23T05:53:07;11.80;99.90
23100;DHT22;53791;50.696;4.396;2023-03-23T05:55:35;11.80;99.90
23100;DHT22;53791;50.696;4.396;2023-03-23T05:58:02;11.80;99.90
23100;DHT22;53791;50.696;4.396;2023-03-23T06:00:30;11.80;99.90
23100;DHT22;53791;50.696;4.396;2023-03-23T06:02:59;11.80;99.90
23100;DHT22;53791;50.696;4.396;2023-03-23T06:05:27;11.80;99.90
23100;DHT22;53791;50.696;4.396;2023-03-23T06:07:55;11.80;99.90
23100;DHT22;53791;50.696;4.396;2023-03-23T06:10:23;11.80;99.90
23100;DHT22;53791;50.696;4.396;2023-03-23T06:12:51;11.90;99.90
23100;DHT22;53791;50.696;4.396;2023-03-23T06:15:18;11.90;99.90
23100;DHT22;53791;50.696;4.396;2023-03-23T06:17:46;11.90;99.90
23100;DHT22;53791;50.696;4.396;2023-03-23T06:20:14;11.90;99.90
23100;DHT22;53791;50.696;4.396;2023-03-23T06:22:41;11.90;99.90
23100;DHT22;53791;50.696;4.396;2023-03-23T06:25:10;12.00;99.90
23100;DHT22;53791;50.696;4.396;2023-03-23T06:27:38;12.00;99.90
23100;DHT22;53791;50.696;4.396;2023-03-23T06:30:06;12.00;99.90
23100;DHT22;53791;50.696;4.396;2023-03-23T06:32:34;12.00;99.90
23100;DHT22;53791;50.696;4.396;2023-03-23T06:35:02;12.00;99.90
23100;DHT22;53791;50.696;4.396;2023-03-23T06:37:30;12.00;99.90
23100;DHT22;53791;50.696;4.396;2023-03-23T06:39:57;12.00;99.90
23100;DHT22;53791;50.696;4.396;2023-03-23T06:42:25;12.10;99.90
23100;DHT22;53791;50.696;4.396;2023-03-23T06:44:53;12.10;99.90
23100;DHT22;53791;50.696;4.396;2023-03-23T06:47:22;12.00;99.90
23100;DHT22;53791;50.696;4.396;2023-03-23T06:49:50;12.00;99.90
23100;DHT22;53791;50.696;4.396;2023-03-23T06:52:18;12.00;99.90
23100;DHT22;53791;50.696;4.396;2023-03-23T06:54:45;12.10;99.90
23100;DHT22;53791;50.696;4.396;2023-03-23T06:57:13;12.10;99.90
23100;DHT22;53791;50.696;4.396;2023-03-23T06:59:40;12.20;99.90
23100;DHT22;53791;50.696;4.396;2023-03-23T07:02:12;12.20;99.90
23100;DHT22;53791;50.696;4.396;2023-03-23T07:04:40;12.20;99.90
23100;DHT22;53791;50.696;4.396;2023-03-23T07:07:09;12.20;99.90
23100;DHT22;53791;50.696;4.396;2023-03-23T07:09:38;12.20;99.90
23100;DHT22;53791;50.696;4.396;2023-03-23T07:12:06;12.10;99.90
23100;DHT22;53791;50.696;4.396;2023-03-23T07:14:34;12.20;99.90
23100;DHT22;53791;50.696;4.396;2023-03-23T07:17:02;12.20;99.90
23100;DHT22;53791;50.696;4.396;2023-03-23T07:19:30;12.20;99.90
23100;DHT22;53791;50.696;4.396;2023-03-23T07:21:58;12.20;99.90
23100;DHT22;53791;50.696;4.396;2023-03-23T07:24:25;12.20;99.90
23100;DHT22;53791;50.696;4.396;2023-03-23T07:26:53;12.20;99.90
23100;DHT22;53791;50.696;4.396;2023-03-23T07:29:20;12.20;99.90
23100;DHT22;53791;50.696;4.396;2023-03-23T07:31:48;12.20;99.90
23100;DHT22;53791;50.696;4.396;2023-03-23T07:34:15;12.10;99.90
23100;DHT22;53791;50.696;4.396;2023-03-23T07:36:43;12.10;99.90
23100;DHT22;53791;50.696;4.396;2023-03-23T07:39:11;11.80;99.90
23100;DHT22;53791;50.696;4.396;2023-03-23T07:41:38;11.70;99.90
23100;DHT22;53791;50.696;4.396;2023-03-23T07:44:06;11.60;99.90
23100;DHT22;53791;50.696;4.396;2023-03-23T07:46:34;11.40;99.90
23100;DHT22;53791;50.696;4.396;2023-03-23T07:49:02;11.20;99.90
23100;DHT22;53791;50.696;4.396;2023-03-23T07:51:32;11.00;99.90
23100;DHT22;53791;50.696;4.396;2023-03-23T07:53:59;10.90;99.90
23100;DHT22;53791;50.696;4.396;2023-03-23T07:56:29;10.80;99.90
23100;DHT22;53791;50.696;4.396;2023-03-23T07:58:57;10.80;99.90
23100;DHT22;53791;50.696;4.396;2023-03-23T08:01:25;10.70;99.90
23100;DHT22;53791;50.696;4.396;2023-03-23T08:03:52;10.60;99.90
23100;DHT22;53791;50.696;4.396;2023-03-23T08:06:21;10.50;99.90
23100;DHT22;53791;50.696;4.396;2023-03-23T08:08:49;10.40;99.90
23100;DHT22;53791;50.696;4.396;2023-03-23T08:11:17;10.40;99.90
23100;DHT22;53791;50.696;4.396;2023-03-23T08:13:46;10.30;99.90
23100;DHT22;53791;50.696;4.396;2023-03-23T08:16:14;10.30;99.90
23100;DHT22;53791;50.696;4.396;2023-03-23T08:18:41;10.30;99.90
23100;DHT22;53791;50.696;4.396;2023-03-23T08:21:09;10.20;99.90
23100;DHT22;53791;50.696;4.396;2023-03-23T08:23:37;10.20;99.90
23100;DHT22;53791;50.696;4.396;2023-03-23T08:26:05;10.10;99.90
23100;DHT22;53791;50.696;4.396;2023-03-23T08:28:38;10.10;99.90
23100;DHT22;53791;50.696;4.396;2023-03-23T08:31:10;10.20;99.90
23100;DHT22;53791;50.696;4.396;2023-03-23T08:33:38;10.40;99.90
23100;DHT22;53791;50.696;4.396;2023-03-23T08:36:08;10.40;99.90
23100;DHT22;53791;50.696;4.396;2023-03-23T08:38:35;10.40;99.90
23100;DHT22;53791;50.696;4.396;2023-03-23T08:41:18;10.40;99.90
23100;DHT22;53791;50.696;4.396;2023-03-23T08:43:46;10.30;99.90
23100;DHT22;53791;50.696;4.396;2023-03-23T08:46:14;10.30;99.90
23100;DHT22;53791;50.696;4.396;2023-03-23T08:48:41;10.20;99.90
23100;DHT22;53791;50.696;4.396;2023-03-23T08:51:10;10.10;99.90
23100;DHT22;53791;50.696;4.396;2023-03-23T08:53:39;10.00;99.90
23100;DHT22;53791;50.696;4.396;2023-03-23T08:56:09;9.90;99.90
23100;DHT22;53791;50.696;4.396;2023-03-23T08:58:37;9.90;99.90
23100;DHT22;53791;50.696;4.396;2023-03-23T09:01:07;9.90;99.90
23100;DHT22;53791;50.696;4.396;2023-03-23T09:03:35;9.90;99.90
23100;DHT22;53791;50.696;4.396;2023-03-23T09:06:05;10.00;99.90
23100;DHT22;53791;50.696;4.396;2023-03-23T09:08:33;10.00;99.90
23100;DHT22;53791;50.696;4.396;2023-03-23T09:11:03;10.00;99.90
23100;DHT22;53791;50.696;4.396;2023-03-23T09:13:31;10.00;99.90
23100;DHT22;53791;50.696;4.396;2023-03-23T09:15:59;10.10;99.90
23100;DHT22;53791;50.696;4.396;2023-03-23T09:18:26;10.00;99.90
23100;DHT22;53791;50.696;4.396;2023-03-23T09:20:54;9.90;99.90
23100;DHT22;53791;50.696;4.396;2023-03-23T09:23:23;9.90;99.90
23100;DHT22;53791;50.696;4.396;2023-03-23T09:25:51;9.90;99.90
23100;DHT22;53791;50.696;4.396;2023-03-23T09:28:19;9.90;99.90
23100;DHT22;53791;50.696;4.396;2023-03-23T09:30:47;9.90;99.90
23100;DHT22;53791;50.696;4.396;2023-03-23T09:33:15;10.00;99.90
23100;DHT22;53791;50.696;4.396;2023-03-23T09:35:43;10.20;99.90
23100;DHT22;53791;50.696;4.396;2023-03-23T09:38:10;10.30;99.90
23100;DHT22;53791;50.696;4.396;2023-03-23T09:41:14;10.40;99.90
23100;DHT22;53791;50.696;4.396;2023-03-23T09:44:02;10.70;99.90
23100;DHT22;53791;50.696;4.396;2023-03-23T09:49:01;10.80;99.90
23100;DHT22;53791;50.696;4.396;2023-03-23T09:51:44;10.70;99.90
23100;DHT22;53791;50.696;4.396;2023-03-23T09:54:20;10.80;99.90
23100;DHT22;53791;50.696;4.396;2023-03-23T09:56:46;10.80;99.90
23100;DHT22;53791;50.696;4.396;2023-03-23T10:02:14;10.80;99.90
23100;DHT22;53791;50.696;4.396;2023-03-23T10:04:49;11.00;99.90
23100;DHT22;53791;50.696;4.396;2023-03-23T10:07:20;11.00;99.90
23100;DHT22;53791;50.696;4.396;2023-03-23T10:09:51;11.10;99.90
23100;DHT22;53791;50.696;4.396;2023-03-23T10:12:32;11.00;99.90
23100;DHT22;53791;50.696;4.396;2023-03-23T10:15:04;11.20;99.90
23100;DHT22;53791;50.696;4.396;2023-03-23T10:17:33;11.20;99.90
23100;DHT22;53791;50.696;4.396;2023-03-23T10:20:33;11.40;99.90
23100;DHT22;53791;50.696;4.396;2023-03-23T10:23:00;11.60;99.90
23100;DHT22;53791;50.696;4.396;2023-03-23T10:25:29;11.70;99.90
23100;DHT22;53791;50.696;4.396;2023-03-23T10:28:01;11.90;99.90
23100;DHT22;53791;50.696;4.396;2023-03-23T10:30:30;12.00;99.90
23100;DHT22;53791;50.696;4.396;2023-03-23T10:33:05;11.90;99.90
23100;DHT22;53791;50.696;4.396;2023-03-23T10:35:45;11.90;99.90
23100;DHT22;53791;50.696;4.396;2023-03-23T10:38:22;12.10;99.90
23100;DHT22;53791;50.696;4.396;2023-03-23T10:40:58;12.30;99.90
23100;DHT22;53791;50.696;4.396;2023-03-23T10:43:19;12.60;99.90
23100;DHT22;53791;50.696;4.396;2023-03-23T10:45:57;12.70;99.90
23100;DHT22;53791;50.696;4.396;2023-03-23T10:48:36;12.90;99.90
23100;DHT22;53791;50.696;4.396;2023-03-23T10:51:00;13.00;99.90
23100;DHT22;53791;50.696;4.396;2023-03-23T10:53:33;13.00;99.90
23100;DHT22;53791;50.696;4.396;2023-03-23T10:56:01;13.10;99.90
23100;DHT22;53791;50.696;4.396;2023-03-23T10:58:31;13.10;99.90
23100;DHT22;53791;50.696;4.396;2023-03-23T11:01:03;13.20;99.90
23100;DHT22;53791;50.696;4.396;2023-03-23T11:03:44;13.40;99.90
23100;DHT22;53791;50.696;4.396;2023-03-23T11:06:24;13.50;99.90
23100;DHT22;53791;50.696;4.396;2023-03-23T11:09:00;13.50;99.90
23100;DHT22;53791;50.696;4.396;2023-03-23T11:11:38;13.40;99.90
23100;DHT22;53791;50.696;4.396;2023-03-23T11:14:03;13.40;99.90
23100;DHT22;53791;50.696;4.396;2023-03-23T11:16:33;13.30;99.90
23100;DHT22;53791;50.696;4.396;2023-03-23T11:19:15;13.30;99.90
23100;DHT22;53791;50.696;4.396;2023-03-23T11:21:49;13.30;99.90
23100;DHT22;53791;50.696;4.396;2023-03-23T11:24:18;13.30;99.90
23100;DHT22;53791;50.696;4.396;2023-03-23T11:26:45;13.30;99.90
23100;DHT22;53791;50.696;4.396;2023-03-23T11:29:17;13.40;99.90
23100;DHT22;53791;50.696;4.396;2023-03-23T11:31:53;13.30;99.90
23100;DHT22;53791;50.696;4.396;2023-03-23T11:34:30;13.30;99.90
23100;DHT22;53791;50.696;4.396;2023-03-23T11:36:58;13.10;99.90
23100;DHT22;53791;50.696;4.396;2023-03-23T11:39:26;13.00;99.90
23100;DHT22;53791;50.696;4.396;2023-03-23T11:41:55;13.00;99.90
23100;DHT22;53791;50.696;4.396;2023-03-23T11:44:31;13.10;99.90
23100;DHT22;53791;50.696;4.396;2023-03-23T11:47:00;12.80;99.90
23100;DHT22;53791;50.696;4.396;2023-03-23T11:50:03;13.00;99.90
23100;DHT22;53791;50.696;4.396;2023-03-23T11:52:47;13.10;99.90
23100;DHT22;53791;50.696;4.396;2023-03-23T11:55:15;13.40;99.90
23100;DHT22;53791;50.696;4.396;2023-03-23T11:57:43;13.90;99.90
23100;DHT22;53791;50.696;4.396;2023-03-23T12:00:19;14.30;99.90
23100;DHT22;53791;50.696;4.396;2023-03-23T12:03:07;15.00;99.90
23100;DHT22;53791;50.696;4.396;2023-03-23T12:08:41;15.30;99.90
23100;DHT22;53791;50.696;4.396;2023-03-23T12:19:00;15.90;99.90
23100;DHT22;53791;50.696;4.396;2023-03-23T12:27:29;15.70;99.90
23100;DHT22;53791;50.696;4.396;2023-03-23T12:32:47;15.30;99.90
23100;DHT22;53791;50.696;4.396;2023-03-23T12:35:36;15.00;99.90
23100;DHT22;53791;50.696;4.396;2023-03-23T12:43:38;13.90;99.90
23100;DHT22;53791;50.696;4.396;2023-03-23T12:49:07;13.30;99.90
23100;DHT22;53791;50.696;4.396;2023-03-23T12:51:51;13.50;99.90
23100;DHT22;53791;50.696;4.396;2023-03-23T12:54:27;13.70;99.90
23100;DHT22;53791;50.696;4.396;2023-03-23T12:59:42;14.40;99.90
23100;DHT22;53791;50.696;4.396;2023-03-23T13:02:20;14.70;99.90
23100;DHT22;53791;50.696;4.396;2023-03-23T13:04:50;14.80;99.90
23100;DHT22;53791;50.696;4.396;2023-03-23T13:07:22;14.90;99.90
23100;DHT22;53791;50.696;4.396;2023-03-23T13:12:25;15.50;99.90
23100;DHT22;53791;50.696;4.396;2023-03-23T13:15:09;15.60;99.90
23100;DHT22;53791;50.696;4.396;2023-03-23T13:20:16;16.00;99.90
23100;DHT22;53791;50.696;4.396;2023-03-23T13:25:59;16.10;99.90
23100;DHT22;53791;50.696;4.396;2023-03-23T13:28:31;15.80;99.90
23100;DHT22;53791;50.696;4.396;2023-03-23T13:31:15;15.70;99.90
23100;DHT22;53791;50.696;4.396;2023-03-23T13:34:01;15.90;99.90
23100;DHT22;53791;50.696;4.396;2023-03-23T13:36:37;16.10;99.90
23100;DHT22;53791;50.696;4.396;2023-03-23T13:39:16;15.90;99.90
23100;DHT22;53791;50.696;4.396;2023-03-23T13:41:46;15.70;99.90
23100;DHT22;53791;50.696;4.396;2023-03-23T13:44:18;15.50;99.90
23100;DHT22;53791;50.696;4.396;2023-03-23T13:46:53;15.40;99.90
23100;DHT22;53791;50.696;4.396;2023-03-23T13:49:22;14.90;99.90
23100;DHT22;53791;50.696;4.396;2023-03-23T13:52:01;14.80;99.90
23100;DHT22;53791;50.696;4.396;2023-03-23T13:54:37;14.80;99.90
23100;DHT22;53791;50.696;4.396;2023-03-23T13:57:03;14.90;99.90
23100;DHT22;53791;50.696;4.396;2023-03-23T13:59:35;15.20;99.90
23100;DHT22;53791;50.696;4.396;2023-03-23T14:02:32;15.30;99.90
23100;DHT22;53791;50.696;4.396;2023-03-23T14:08:14;15.60;99.90
23100;DHT22;53791;50.696;4.396;2023-03-23T14:10:50;15.60;99.90
23100;DHT22;53791;50.696;4.396;2023-03-23T14:15:57;16.20;99.90
23100;DHT22;53791;50.696;4.396;2023-03-23T14:18:30;16.40;99.90
23100;DHT22;53791;50.696;4.396;2023-03-23T14:20:58;16.50;99.90
23100;DHT22;53791;50.696;4.396;2023-03-23T14:23:26;16.20;99.90
23100;DHT22;53791;50.696;4.396;2023-03-23T14:26:00;16.00;99.90
23100;DHT22;53791;50.696;4.396;2023-03-23T14:28:29;15.90;99.90
23100;DHT22;53791;50.696;4.396;2023-03-23T14:30:57;15.80;99.90
23100;DHT22;53791;50.696;4.396;2023-03-23T14:33:25;15.30;99.90
23100;DHT22;53791;50.696;4.396;2023-03-23T14:35:57;14.80;99.90
23100;DHT22;53791;50.696;4.396;2023-03-23T14:38:24;14.70;99.90
23100;DHT22;53791;50.696;4.396;2023-03-23T14:40:54;14.60;99.90
23100;DHT22;53791;50.696;4.396;2023-03-23T14:43:23;14.60;99.90
23100;DHT22;53791;50.696;4.396;2023-03-23T14:45:54;14.60;99.90
23100;DHT22;53791;50.696;4.396;2023-03-23T14:48:22;14.90;99.90
23100;DHT22;53791;50.696;4.396;2023-03-23T14:50:57;15.30;99.90
23100;DHT22;53791;50.696;4.396;2023-03-23T14:53:36;15.80;99.90
23100;DHT22;53791;50.696;4.396;2023-03-23T14:56:17;16.20;99.90
23100;DHT22;53791;50.696;4.396;2023-03-23T14:58:45;16.50;99.90
23100;DHT22;53791;50.696;4.396;2023-03-23T15:01:17;16.50;99.90
23100;DHT22;53791;50.696;4.396;2023-03-23T15:06:18;16.80;99.90
23100;DHT22;53791;50.696;4.396;2023-03-23T15:08:49;16.70;99.90
23100;DHT22;53791;50.696;4.396;2023-03-23T15:13:53;16.20;99.90
23100;DHT22;53791;50.696;4.396;2023-03-23T15:16:26;15.90;99.90
23100;DHT22;53791;50.696;4.396;2023-03-23T15:19:00;15.70;99.90
23100;DHT22;53791;50.696;4.396;2023-03-23T15:21:33;15.60;99.90
23100;DHT22;53791;50.696;4.396;2023-03-23T15:24:02;15.70;99.90
23100;DHT22;53791;50.696;4.396;2023-03-23T15:26:32;15.80;99.90
23100;DHT22;53791;50.696;4.396;2023-03-23T15:29:12;15.80;99.90
23100;DHT22;53791;50.696;4.396;2023-03-23T15:31:41;15.80;99.90
23100;DHT22;53791;50.696;4.396;2023-03-23T15:34:19;15.70;99.90
23100;DHT22;53791;50.696;4.396;2023-03-23T15:36:45;15.60;99.90
23100;DHT22;53791;50.696;4.396;2023-03-23T15:39:13;15.50;99.90
23100;DHT22;53791;50.696;4.396;2023-03-23T15:41:49;15.40;99.90
23100;DHT22;53791;50.696;4.396;2023-03-23T15:44:29;15.30;99.90
23100;DHT22;53791;50.696;4.396;2023-03-23T15:49:32;15.30;99.90
23100;DHT22;53791;50.696;4.396;2023-03-23T15:52:00;15.30;99.90
23100;DHT22;53791;50.696;4.396;2023-03-23T15:54:34;15.20;99.90
23100;DHT22;53791;50.696;4.396;2023-03-23T15:57:01;15.10;99.90
23100;DHT22;53791;50.696;4.396;2023-03-23T15:59:29;15.10;99.90
23100;DHT22;53791;50.696;4.396;2023-03-23T16:01:57;15.00;99.90
23100;DHT22;53791;50.696;4.396;2023-03-23T16:04:24;15.00;99.90
23100;DHT22;53791;50.696;4.396;2023-03-23T16:06:54;14.90;99.90
23100;DHT22;53791;50.696;4.396;2023-03-23T16:09:22;14.80;99.90
23100;DHT22;53791;50.696;4.396;2023-03-23T16:11:50;14.60;99.90
23100;DHT22;53791;50.696;4.396;2023-03-23T16:14:17;14.50;99.90
23100;DHT22;53791;50.696;4.396;2023-03-23T16:16:47;14.40;99.90
23100;DHT22;53791;50.696;4.396;2023-03-23T16:19:15;14.40;99.90
23100;DHT22;53791;50.696;4.396;2023-03-23T16:21:43;14.40;99.90
23100;DHT22;53791;50.696;4.396;2023-03-23T16:24:11;14.40;99.90
23100;DHT22;53791;50.696;4.396;2023-03-23T16:26:38;14.50;99.90
23100;DHT22;53791;50.696;4.396;2023-03-23T16:29:11;14.60;99.90
23100;DHT22;53791;50.696;4.396;2023-03-23T16:31:39;14.80;99.90
23100;DHT22;53791;50.696;4.396;2023-03-23T16:34:07;15.00;99.90
23100;DHT22;53791;50.696;4.396;2023-03-23T16:36:35;15.10;99.90
23100;DHT22;53791;50.696;4.396;2023-03-23T16:39:03;15.10;99.90
23100;DHT22;53791;50.696;4.396;2023-03-23T16:41:30;15.10;99.90
23100;DHT22;53791;50.696;4.396;2023-03-23T16:43:58;15.00;99.90
23100;DHT22;53791;50.696;4.396;2023-03-23T16:46:25;14.90;99.90
23100;DHT22;53791;50.696;4.396;2023-03-23T16:48:53;14.90;99.90
23100;DHT22;53791;50.696;4.396;2023-03-23T16:51:20;14.80;99.90
23100;DHT22;53791;50.696;4.396;2023-03-23T16:53:48;14.80;99.90
23100;DHT22;53791;50.696;4.396;2023-03-23T16:56:23;14.70;99.90
23100;DHT22;53791;50.696;4.396;2023-03-23T16:58:51;14.70;99.90